Terminal Aerodrome Forecast
Issued by NWS

Home | Current Version | Previous Version | Text Only | Print | Product List | Glossary On
Versions: 1 2 3 4 5 6 7 8 9 10 11 12 13 14 15 16
792
FTUS46 KPDT 221140
TAFALW
TAF
KALW 221140Z 2212/2312 21026G36KT P6SM -RA OVC040
     FM221800 23020G28KT P6SM FEW050 SCT090
     FM222200 25020G30KT P6SM SCT100 BKN250
     FM230300 18012KT P6SM SCT130 BKN150=

USA.gov is the U.S. government's official web portal to all federal, state and local government web resources and services.